createdAt,value
2022-09-28T06:02:59.090Z,969.20
2022-09-28T06:04:00.153Z,969.18
2022-09-28T06:05:00.178Z,969.20
2022-09-28T06:06:00.179Z,969.14
2022-09-28T06:07:00.130Z,969.20
2022-09-28T06:08:00.290Z,969.18
2022-09-28T06:09:00.123Z,969.12
2022-09-28T06:10:00.168Z,969.14
2022-09-28T06:11:00.196Z,969.15
2022-09-28T06:12:00.138Z,969.17
2022-09-28T06:13:00.251Z,969.16
2022-09-28T06:14:00.062Z,969.14
2022-09-28T06:15:00.172Z,969.14
2022-09-28T06:16:00.109Z,969.14
2022-09-28T06:17:00.211Z,969.17
2022-09-28T06:18:00.055Z,969.22
2022-09-28T06:19:00.106Z,969.13
2022-09-28T06:19:59.982Z,969.16
2022-09-28T06:20:59.995Z,969.16
2022-09-28T06:21:59.950Z,969.14
2022-09-28T06:23:00.044Z,969.18
2022-09-28T06:24:00.018Z,969.19
2022-09-28T06:24:59.951Z,969.20
2022-09-28T06:26:00.001Z,969.22
2022-09-28T06:26:59.949Z,969.28
2022-09-28T06:27:59.922Z,969.21
2022-09-28T06:28:59.945Z,969.19
2022-09-28T06:29:59.897Z,969.24
2022-09-28T06:31:00.041Z,969.24
2022-09-28T06:31:59.874Z,969.18
2022-09-28T06:32:59.875Z,969.26
2022-09-28T06:34:00.158Z,969.32
2022-09-28T06:34:59.925Z,969.26
2022-09-28T06:35:59.832Z,969.30
2022-09-28T06:36:59.804Z,969.30
2022-09-28T06:37:59.808Z,969.20
2022-09-28T06:38:59.843Z,969.28
2022-09-28T06:39:59.843Z,969.29
2022-09-28T06:40:59.956Z,969.23
2022-09-28T06:41:59.837Z,969.30
2022-09-28T06:42:59.770Z,969.25
2022-09-28T06:43:59.886Z,969.27
2022-09-28T06:44:59.814Z,969.30
2022-09-28T06:45:59.823Z,969.29
2022-09-28T06:46:59.794Z,969.35
2022-09-28T06:48:00.039Z,969.29
2022-09-28T06:48:59.842Z,969.39
2022-09-28T06:49:59.763Z,969.37
2022-09-28T06:50:59.699Z,969.38
2022-09-28T06:51:59.782Z,969.39
2022-09-28T06:52:59.669Z,969.37
2022-09-28T06:53:59.818Z,969.35
2022-09-28T06:54:59.636Z,969.39
2022-09-28T06:55:59.705Z,969.37
2022-09-28T06:56:59.685Z,969.29
2022-09-28T06:57:59.590Z,969.30
2022-09-28T06:58:59.682Z,969.28
2022-09-28T06:59:59.699Z,969.31
2022-09-28T07:00:59.702Z,969.32
2022-09-28T07:01:59.615Z,969.37
2022-09-28T07:02:59.701Z,969.28
2022-09-28T07:03:59.602Z,969.29
2022-09-28T07:04:59.777Z,969.30
2022-09-28T07:05:59.517Z,969.25
2022-09-28T07:06:59.619Z,969.29
2022-09-28T07:07:59.522Z,969.28
2022-09-28T07:09:21.081Z,969.28
2022-09-28T07:10:01.678Z,969.34
2022-09-28T07:10:59.563Z,969.40
2022-09-28T07:11:59.563Z,969.39
2022-09-28T07:12:59.549Z,969.37
2022-09-28T07:13:59.526Z,969.37
2022-09-28T07:14:59.440Z,969.40
2022-09-28T07:15:59.434Z,969.35
2022-09-28T07:17:30.478Z,969.39
2022-09-28T07:18:02.733Z,969.43
2022-09-28T07:19:00.559Z,969.40
2022-09-28T07:20:05.291Z,969.45
2022-09-28T07:21:00.393Z,969.45
2022-09-28T07:22:04.718Z,969.48
2022-09-28T07:23:12.289Z,969.52
2022-09-28T07:24:01.561Z,969.54
2022-09-28T07:24:59.401Z,969.54
2022-09-28T07:25:59.319Z,969.53
2022-09-28T07:26:59.295Z,969.54
2022-09-28T07:27:59.357Z,969.59
2022-09-28T07:28:59.467Z,969.59
2022-09-28T07:29:59.274Z,969.63
2022-09-28T07:30:59.409Z,969.54
2022-09-28T07:31:59.365Z,969.54
2022-09-28T07:32:59.214Z,969.60
2022-09-28T07:34:00.799Z,969.56
2022-09-28T07:34:59.353Z,969.61
2022-09-28T07:35:59.216Z,969.64
2022-09-28T07:36:59.258Z,969.65
2022-09-28T07:37:59.309Z,969.66
2022-09-28T07:38:59.315Z,969.62
2022-09-28T07:39:59.190Z,969.66
2022-09-28T07:40:59.330Z,969.67
2022-09-28T07:42:02.576Z,969.59
2022-09-28T07:43:00.137Z,969.61
2022-09-28T07:43:59.310Z,969.62
2022-09-28T07:44:59.146Z,969.69
2022-09-28T07:45:59.286Z,969.66
2022-09-28T07:46:59.171Z,969.67
2022-09-28T07:47:59.254Z,969.68
2022-09-28T07:48:59.477Z,969.64
2022-09-28T07:49:59.070Z,969.64
2022-09-28T07:50:59.053Z,969.65
2022-09-28T07:51:59.101Z,969.70
2022-09-28T07:52:59.130Z,969.67
2022-09-28T07:53:59.154Z,969.68
2022-09-28T07:55:02.185Z,969.62
2022-09-28T07:56:00.117Z,969.61
2022-09-28T07:56:59.097Z,969.62
2022-09-28T07:57:59.082Z,969.66
2022-09-28T07:58:59.036Z,969.65
2022-09-28T07:59:59.045Z,969.66
2022-09-28T08:00:59.117Z,969.61
2022-09-28T08:01:59.012Z,969.58
2022-09-28T08:02:58.976Z,969.61
2022-09-28T08:03:58.922Z,969.65
2022-09-28T08:04:59.006Z,969.66
2022-09-28T08:05:58.890Z,969.63
2022-09-28T08:06:58.876Z,969.66
2022-09-28T08:07:58.831Z,969.72
2022-09-28T08:08:58.886Z,969.76
2022-09-28T08:09:58.839Z,969.83
2022-09-28T08:10:58.833Z,969.81
2022-09-28T08:11:58.930Z,969.76
2022-09-28T08:13:01.977Z,969.82
2022-09-28T08:13:58.857Z,969.79
2022-09-28T08:14:58.815Z,969.83
2022-09-28T08:15:58.790Z,969.76
2022-09-28T08:16:58.784Z,969.86
2022-09-28T08:18:02.018Z,969.86
2022-09-28T08:18:58.835Z,969.93
2022-09-28T08:19:58.763Z,969.95
2022-09-28T08:20:58.772Z,969.88
2022-09-28T08:21:58.824Z,969.95
2022-09-28T08:22:58.753Z,969.94
2022-09-28T08:23:58.736Z,969.94
2022-09-28T08:24:58.828Z,969.89
2022-09-28T08:25:58.747Z,969.94
2022-09-28T08:26:58.730Z,969.96
2022-09-28T08:27:58.767Z,969.97
2022-09-28T08:28:58.783Z,969.99
2022-09-28T08:29:58.669Z,969.98
2022-09-28T08:30:58.650Z,970.00
2022-09-28T08:32:01.494Z,970.04
2022-09-28T08:32:59.586Z,970.11
2022-09-28T08:33:58.631Z,970.10
2022-09-28T08:34:58.669Z,970.05
2022-09-28T08:35:58.539Z,970.06
2022-09-28T08:36:58.590Z,970.05
2022-09-28T08:37:58.643Z,970.05
2022-09-28T08:38:58.662Z,970.00
2022-09-28T08:39:58.531Z,970.07
2022-09-28T08:40:58.563Z,970.04
2022-09-28T08:41:58.586Z,970.02
2022-09-28T08:42:58.541Z,970.05
2022-09-28T08:43:58.484Z,970.02
2022-09-28T08:44:58.514Z,970.08
2022-09-28T08:45:58.500Z,970.04
2022-09-28T08:46:58.408Z,970.09
2022-09-28T08:47:58.456Z,970.08
2022-09-28T08:49:13.772Z,970.06
2022-09-28T08:50:00.577Z,970.00
2022-09-28T08:50:58.357Z,970.02
2022-09-28T08:51:58.492Z,970.02
2022-09-28T08:52:58.398Z,970.02
2022-09-28T08:53:58.363Z,970.02
2022-09-28T08:54:58.352Z,970.05
2022-09-28T08:55:58.304Z,970.02
2022-09-28T08:56:58.289Z,970.08
2022-09-28T08:57:58.405Z,970.04
2022-09-28T08:58:58.305Z,970.00
2022-09-28T08:59:58.285Z,970.06
2022-09-28T09:00:58.307Z,970.08
2022-09-28T09:01:58.237Z,970.07
2022-09-28T09:02:58.314Z,970.09
2022-09-28T09:03:58.280Z,970.11
2022-09-28T09:04:58.230Z,970.08
2022-09-28T09:05:58.287Z,970.09
2022-09-28T09:06:58.189Z,970.04
2022-09-28T09:07:58.213Z,970.16
2022-09-28T09:08:58.220Z,970.13
2022-09-28T09:09:58.278Z,970.09
2022-09-28T09:10:58.256Z,970.13
2022-09-28T09:11:58.140Z,970.11
2022-09-28T09:12:58.127Z,970.11
2022-09-28T09:13:58.501Z,970.16
2022-09-28T09:14:58.164Z,970.11
2022-09-28T09:15:58.144Z,970.16
2022-09-28T09:17:00.461Z,970.18
2022-09-28T09:17:59.097Z,970.20
2022-09-28T09:18:58.073Z,970.22
2022-09-28T09:19:58.052Z,970.24
2022-09-28T09:20:58.031Z,970.27
2022-09-28T09:21:58.033Z,970.29
2022-09-28T09:22:58.131Z,970.33
2022-09-28T09:23:58.115Z,970.35
2022-09-28T09:24:57.962Z,970.35
2022-09-28T09:25:58.053Z,970.40
2022-09-28T09:26:57.959Z,970.42
2022-09-28T09:27:58.071Z,970.47
2022-09-28T09:28:58.065Z,970.45
2022-09-28T09:29:57.921Z,970.50
2022-09-28T09:30:58.027Z,970.55
2022-09-28T09:31:57.999Z,970.56
2022-09-28T09:32:57.919Z,970.56
2022-09-28T09:33:58.007Z,970.52
2022-09-28T09:34:57.889Z,970.55
2022-09-28T09:35:57.930Z,970.57
2022-09-28T09:36:57.835Z,970.62
2022-09-28T09:37:58.727Z,970.65
2022-09-28T09:38:58.878Z,970.61
2022-09-28T09:39:57.904Z,970.62
2022-09-28T09:40:57.929Z,970.64
2022-09-28T09:41:57.925Z,970.65
2022-09-28T09:42:57.915Z,970.79
2022-09-28T09:43:58.172Z,970.78
2022-09-28T09:44:57.763Z,970.70
2022-09-28T09:45:57.862Z,970.74
2022-09-28T09:46:57.879Z,970.72
2022-09-28T09:47:57.800Z,970.73
2022-09-28T09:48:57.775Z,970.71
2022-09-28T09:49:57.710Z,970.70
2022-09-28T09:50:57.840Z,970.73
2022-09-28T09:51:57.711Z,970.81
2022-09-28T09:52:57.698Z,970.77
2022-09-28T09:53:57.730Z,970.82
2022-09-28T09:54:57.688Z,970.77
2022-09-28T09:55:57.640Z,970.73
2022-09-28T09:56:57.664Z,970.74
2022-09-28T09:57:57.757Z,970.66
2022-09-28T09:58:57.732Z,970.69
2022-09-28T09:59:57.681Z,970.66
2022-09-28T10:00:57.722Z,970.62
2022-09-28T10:01:57.731Z,970.61
2022-09-28T10:02:57.625Z,970.64
2022-09-28T10:03:58.083Z,970.65
2022-09-28T10:04:57.648Z,970.59
2022-09-28T10:05:57.602Z,970.63
2022-09-28T10:06:57.554Z,970.62
2022-09-28T10:07:57.615Z,970.65
2022-09-28T10:08:57.559Z,970.50
2022-09-28T10:09:57.557Z,970.47
2022-09-28T10:10:57.494Z,970.44
2022-09-28T10:11:57.479Z,970.44
2022-09-28T10:12:57.463Z,970.44
2022-09-28T10:13:57.510Z,970.35
2022-09-28T10:14:57.466Z,970.39
2022-09-28T10:15:57.427Z,970.38
2022-09-28T10:16:57.690Z,970.40
2022-09-28T10:17:57.487Z,970.32
2022-09-28T10:18:57.795Z,970.34
2022-09-28T10:19:57.393Z,970.40
2022-09-28T10:20:57.460Z,970.32
2022-09-28T10:21:57.479Z,970.29
2022-09-28T10:22:57.425Z,970.34
2022-09-28T10:23:57.382Z,970.32
2022-09-28T10:24:57.437Z,970.33
2022-09-28T10:25:57.334Z,970.34
2022-09-28T10:26:57.320Z,970.37
2022-09-28T10:27:57.327Z,970.37
2022-09-28T10:28:57.342Z,970.39
2022-09-28T10:29:57.375Z,970.37
2022-09-28T10:30:57.497Z,970.32
2022-09-28T10:31:57.249Z,970.37
2022-09-28T10:32:57.369Z,970.37
2022-09-28T10:33:57.374Z,970.41
2022-09-28T10:34:57.247Z,970.39
2022-09-28T10:35:57.251Z,970.39
2022-09-28T10:36:57.210Z,970.44
2022-09-28T10:37:57.196Z,970.41
2022-09-28T10:38:57.210Z,970.42
2022-09-28T10:39:57.151Z,970.49
2022-09-28T10:40:57.197Z,970.45
2022-09-28T10:41:57.171Z,970.49
2022-09-28T10:42:57.136Z,970.48
2022-09-28T10:43:58.156Z,970.50
2022-09-28T10:44:58.166Z,970.43
2022-09-28T10:45:57.185Z,970.38
2022-09-28T10:46:57.157Z,970.42
2022-09-28T10:47:57.059Z,970.41
2022-09-28T10:48:57.212Z,970.45
2022-09-28T10:49:57.042Z,970.38
2022-09-28T10:50:57.093Z,970.44
2022-09-28T10:51:57.055Z,970.38
2022-09-28T10:52:57.020Z,970.37
2022-09-28T10:53:57.029Z,970.38
2022-09-28T10:54:57.153Z,970.41
2022-09-28T10:55:57.039Z,970.43
2022-09-28T10:56:57.086Z,970.39
2022-09-28T10:57:56.958Z,970.42
2022-09-28T10:58:56.951Z,970.43
2022-09-28T10:59:57.099Z,970.45
2022-09-28T11:00:56.940Z,970.40
2022-09-28T11:01:57.141Z,970.39
2022-09-28T11:02:56.965Z,970.42
2022-09-28T11:03:56.955Z,970.45
2022-09-28T11:04:57.046Z,970.40
2022-09-28T11:05:57.012Z,970.37
2022-09-28T11:06:56.972Z,970.38
2022-09-28T11:07:56.865Z,970.42
2022-09-28T11:08:56.842Z,970.46
2022-09-28T11:09:56.881Z,970.34
2022-09-28T11:10:56.888Z,970.39
2022-09-28T11:11:56.903Z,970.42
2022-09-28T11:12:56.792Z,970.47
2022-09-28T11:13:56.781Z,970.46
2022-09-28T11:14:56.977Z,970.49
2022-09-28T11:15:56.751Z,970.56
2022-09-28T11:16:56.825Z,970.55
2022-09-28T11:17:56.773Z,970.56
2022-09-28T11:18:56.841Z,970.56
2022-09-28T11:19:56.941Z,970.54
2022-09-28T11:20:56.966Z,970.57
2022-09-28T11:21:56.663Z,970.58
2022-09-28T11:22:57.748Z,970.68
2022-09-28T11:23:56.720Z,970.62
2022-09-28T11:24:56.702Z,970.70
2022-09-28T11:25:56.842Z,970.70
2022-09-28T11:26:56.734Z,970.86
2022-09-28T11:27:56.708Z,970.90
2022-09-28T11:28:56.733Z,970.96
2022-09-28T11:29:56.734Z,970.89
2022-09-28T11:30:56.597Z,970.96
2022-09-28T11:31:56.706Z,970.92
2022-09-28T11:32:56.678Z,971.06
2022-09-28T11:33:56.659Z,971.01
2022-09-28T11:34:59.434Z,971.01
2022-09-28T11:35:57.636Z,971.03
2022-09-28T11:37:01.425Z,970.92
2022-09-28T11:37:58.519Z,971.03
2022-09-28T11:38:56.573Z,971.06
2022-09-28T11:39:56.573Z,971.04
2022-09-28T11:40:56.553Z,971.08
2022-09-28T11:41:56.564Z,971.00
2022-09-28T11:42:56.518Z,970.92
2022-09-28T11:43:56.442Z,971.07
2022-09-28T11:44:56.585Z,971.02
2022-09-28T11:45:56.504Z,971.06
2022-09-28T11:46:56.442Z,970.99
2022-09-28T11:47:56.398Z,970.99
2022-09-28T11:48:56.468Z,970.94
2022-09-28T11:49:56.749Z,970.97
2022-09-28T11:50:56.607Z,970.91
2022-09-28T11:51:56.444Z,970.88
2022-09-28T11:52:56.432Z,970.96
2022-09-28T11:53:56.430Z,970.94
2022-09-28T11:54:56.480Z,970.92
2022-09-28T11:55:56.350Z,970.88
2022-09-28T11:56:56.269Z,971.00
2022-09-28T11:57:56.374Z,970.96
2022-09-28T11:58:56.360Z,971.02
2022-09-28T11:59:56.662Z,970.96
2022-09-28T12:00:56.380Z,970.98
2022-09-28T12:01:57.360Z,970.99
2022-09-28T12:02:56.351Z,970.99
2022-09-28T12:03:56.278Z,971.00
2022-09-28T12:04:56.617Z,971.08
2022-09-28T12:05:56.274Z,970.97
2022-09-28T12:06:56.198Z,971.06
2022-09-28T12:07:56.242Z,971.07
2022-09-28T12:08:56.269Z,970.99
2022-09-28T12:09:56.200Z,970.88
2022-09-28T12:10:56.153Z,970.96
2022-09-28T12:11:56.238Z,970.98
2022-09-28T12:12:56.145Z,970.98
2022-09-28T12:13:56.174Z,970.96
2022-09-28T12:14:56.140Z,970.97
2022-09-28T12:17:06.963Z,970.95
2022-09-28T12:17:58.267Z,970.97
2022-09-28T12:18:56.107Z,970.92
2022-09-28T12:19:56.132Z,970.91
2022-09-28T12:20:56.097Z,970.90
2022-09-28T12:21:56.132Z,970.91
2022-09-28T12:22:56.132Z,970.91
2022-09-28T12:23:56.004Z,970.87
2022-09-28T12:24:56.165Z,970.94
2022-09-28T12:25:56.008Z,970.81
2022-09-28T12:26:55.996Z,970.82
2022-09-28T12:27:55.939Z,970.79
2022-09-28T12:28:55.948Z,970.81
2022-09-28T12:29:56.302Z,970.84
2022-09-28T12:30:55.973Z,970.78
2022-09-28T12:31:56.020Z,970.76
2022-09-28T12:32:55.894Z,970.63
2022-09-28T12:33:56.020Z,970.73
2022-09-28T12:34:55.953Z,970.64
2022-09-28T12:35:55.971Z,970.69
2022-09-28T12:36:56.137Z,970.70
2022-09-28T12:37:55.965Z,970.63
2022-09-28T12:39:17.479Z,970.60
2022-09-28T12:39:58.639Z,970.63
2022-09-28T12:40:56.946Z,970.61
2022-09-28T12:41:56.362Z,970.59
2022-09-28T12:42:55.814Z,970.59
2022-09-28T12:43:55.873Z,970.61
2022-09-28T12:44:59.283Z,970.63
2022-09-28T12:46:11.606Z,970.62
2022-09-28T12:46:58.199Z,970.64
2022-09-28T12:47:55.862Z,970.85
2022-09-28T12:49:36.710Z,970.86
2022-09-28T12:50:58.365Z,970.91
2022-09-28T12:51:56.724Z,970.94
2022-09-28T12:52:58.128Z,970.96
2022-09-28T12:53:56.880Z,971.05
2022-09-28T12:54:55.709Z,971.18
2022-09-28T12:55:55.774Z,971.12
2022-09-28T12:56:55.738Z,971.23
2022-09-28T12:57:55.645Z,971.17
2022-09-28T12:58:55.685Z,971.23
2022-09-28T12:59:55.751Z,971.23
2022-09-28T13:00:55.747Z,971.22
2022-09-28T13:01:56.686Z,971.21
2022-09-28T13:02:55.716Z,971.23
2022-09-28T13:03:55.569Z,971.25
2022-09-28T13:04:55.717Z,971.19
2022-09-28T13:05:55.649Z,971.25
2022-09-28T13:06:55.643Z,971.21
2022-09-28T13:07:55.576Z,971.27
2022-09-28T13:08:56.530Z,971.27
2022-09-28T13:09:55.561Z,971.26
2022-09-28T13:10:55.600Z,971.26
2022-09-28T13:11:55.527Z,971.18
2022-09-28T13:12:55.518Z,971.18
2022-09-28T13:13:55.528Z,971.26
2022-09-28T13:14:55.612Z,971.11
2022-09-28T13:15:55.598Z,971.19
2022-09-28T13:17:00.417Z,971.19
2022-09-28T13:17:57.351Z,971.28
2022-09-28T13:18:55.454Z,971.21
2022-09-28T13:19:55.412Z,971.24
2022-09-28T13:20:55.446Z,971.23
2022-09-28T13:21:56.373Z,971.31
2022-09-28T13:22:55.468Z,971.24
2022-09-28T13:24:04.474Z,971.30
2022-09-28T13:24:57.492Z,971.31
2022-09-28T13:25:55.392Z,971.31
2022-09-28T13:26:55.377Z,971.37
2022-09-28T13:27:55.309Z,971.30
2022-09-28T13:28:55.390Z,971.30
2022-09-28T13:29:56.676Z,971.37
2022-09-28T13:30:55.616Z,971.30
2022-09-28T13:31:55.308Z,971.30
2022-09-28T13:32:55.335Z,971.35
2022-09-28T13:33:55.337Z,971.30
2022-09-28T13:34:55.281Z,971.31
2022-09-28T13:35:56.037Z,971.33
2022-09-28T13:36:55.256Z,971.35
2022-09-28T13:37:55.198Z,971.33
2022-09-28T13:38:55.228Z,971.28
2022-09-28T13:39:55.225Z,971.30
2022-09-28T13:40:55.293Z,971.35
2022-09-28T13:41:55.240Z,971.27
2022-09-28T13:42:55.224Z,971.30
2022-09-28T13:43:55.128Z,971.31
2022-09-28T13:44:55.247Z,971.20
2022-09-28T13:45:55.238Z,971.24
2022-09-28T13:46:55.156Z,971.29
2022-09-28T13:47:55.130Z,971.26
2022-09-28T13:48:55.123Z,971.27
2022-09-28T13:49:55.195Z,971.24
2022-09-28T13:50:55.091Z,971.23
2022-09-28T13:51:55.156Z,971.30
2022-09-28T13:52:55.054Z,971.18
2022-09-28T13:53:55.100Z,971.26
2022-09-28T13:54:55.030Z,971.25
2022-09-28T13:55:54.988Z,971.25
2022-09-28T13:56:55.069Z,971.25
2022-09-28T13:57:55.066Z,971.26
2022-09-28T13:58:55.057Z,971.30
2022-09-28T13:59:55.135Z,971.27
2022-09-28T14:00:54.949Z,971.06
2022-09-28T14:01:55.025Z,971.05
2022-09-28T14:02:54.980Z,971.02
2022-09-28T14:03:54.903Z,971.01
2022-09-28T14:04:55.263Z,970.98
2022-09-28T14:05:54.851Z,971.02
2022-09-28T14:06:55.813Z,970.92
2022-09-28T14:07:57.256Z,970.93
2022-09-28T14:08:54.893Z,970.96
2022-09-28T14:09:54.963Z,970.86
2022-09-28T14:10:54.877Z,970.91
2022-09-28T14:11:54.923Z,970.84
2022-09-28T14:12:54.948Z,970.81
2022-09-28T14:13:54.811Z,970.81
2022-09-28T14:14:54.813Z,970.79
2022-09-28T14:15:54.772Z,970.81
2022-09-28T14:16:54.828Z,970.78
2022-09-28T14:17:54.760Z,970.74
2022-09-28T14:19:13.433Z,970.78
2022-09-28T14:19:54.893Z,970.68
2022-09-28T14:20:54.787Z,970.71
2022-09-28T14:21:54.750Z,970.70
2022-09-28T14:22:54.747Z,970.69
2022-09-28T14:23:59.027Z,970.60
2022-09-28T14:24:56.889Z,970.60
2022-09-28T14:25:54.645Z,970.62
2022-09-28T14:26:54.984Z,970.61
2022-09-28T14:27:54.616Z,970.55
2022-09-28T14:28:54.632Z,970.63
2022-09-28T14:29:54.804Z,970.55
2022-09-28T14:30:54.723Z,970.58
2022-09-28T14:31:54.583Z,970.51
2022-09-28T14:32:54.691Z,970.57
2022-09-28T14:33:54.614Z,970.57
2022-09-28T14:34:54.589Z,970.61
2022-09-28T14:35:54.646Z,970.58
2022-09-28T14:36:54.641Z,970.53
2022-09-28T14:37:54.517Z,970.53
2022-09-28T14:38:54.496Z,970.46
2022-09-28T14:39:54.645Z,970.49
2022-09-28T14:40:54.530Z,970.51
2022-09-28T14:41:54.531Z,970.52
2022-09-28T14:42:54.472Z,970.53
2022-09-28T14:43:54.450Z,970.42
2022-09-28T14:44:54.453Z,970.44
2022-09-28T14:45:54.629Z,970.42
2022-09-28T14:46:54.466Z,970.49
2022-09-28T14:47:54.512Z,970.44
2022-09-28T14:48:54.410Z,970.43
2022-09-28T14:49:54.565Z,970.45
2022-09-28T14:50:54.364Z,970.43
2022-09-28T14:51:54.449Z,970.45
2022-09-28T14:52:55.448Z,970.44
2022-09-28T14:53:54.463Z,970.39
2022-09-28T14:54:54.373Z,970.47
2022-09-28T14:55:54.367Z,970.48
2022-09-28T14:56:54.436Z,970.41
2022-09-28T14:57:54.270Z,970.43
2022-09-28T14:58:55.404Z,970.43
2022-09-28T14:59:54.306Z,970.43
2022-09-28T15:00:54.274Z,970.44
2022-09-28T15:01:54.335Z,970.46
2022-09-28T15:02:54.273Z,970.48
2022-09-28T15:03:54.357Z,970.50
2022-09-28T15:04:54.605Z,970.44
2022-09-28T15:05:54.316Z,970.43
2022-09-28T15:06:54.434Z,970.48
2022-09-28T15:07:54.253Z,970.53
2022-09-28T15:08:54.238Z,970.50
2022-09-28T15:09:54.547Z,970.37
2022-09-28T15:10:54.213Z,970.48
2022-09-28T15:11:54.141Z,970.53
2022-09-28T15:12:54.201Z,970.45
2022-09-28T15:13:54.237Z,970.44
2022-09-28T15:14:54.264Z,970.45
2022-09-28T15:15:54.192Z,970.43
2022-09-28T15:16:54.196Z,970.45
2022-09-28T15:17:54.162Z,970.48
2022-09-28T15:18:54.118Z,970.46
2022-09-28T15:19:54.103Z,970.65
2022-09-28T15:20:54.051Z,970.72
2022-09-28T15:21:55.136Z,970.60
2022-09-28T15:22:54.140Z,970.54
2022-09-28T15:23:54.090Z,970.56
2022-09-28T15:24:56.643Z,970.57
2022-09-28T15:25:54.060Z,970.65
2022-09-28T15:26:53.977Z,970.76
2022-09-28T15:27:53.990Z,970.70
2022-09-28T15:28:54.036Z,970.66
2022-09-28T15:29:53.988Z,970.65
2022-09-28T15:30:54.020Z,970.75
2022-09-28T15:31:54.738Z,970.83
2022-09-28T15:32:54.931Z,970.86
2022-09-28T15:33:53.910Z,970.92
2022-09-28T15:34:54.000Z,970.95
2022-09-28T15:35:55.035Z,971.01
2022-09-28T15:36:53.897Z,971.00
2022-09-28T15:37:53.915Z,970.96
2022-09-28T15:38:53.877Z,970.83
2022-09-28T15:39:54.050Z,970.85
2022-09-28T15:40:53.905Z,970.95
2022-09-28T15:41:53.912Z,970.97
2022-09-28T15:42:58.371Z,971.04
2022-09-28T15:43:55.945Z,971.08
2022-09-28T15:44:53.786Z,971.09
2022-09-28T15:45:54.212Z,971.15
2022-09-28T15:46:53.852Z,971.26
2022-09-28T15:47:53.754Z,971.39
2022-09-28T15:48:53.807Z,971.30
2022-09-28T15:49:53.732Z,971.23
2022-09-28T15:50:53.812Z,971.13
2022-09-28T15:51:53.735Z,971.08
2022-09-28T15:52:53.715Z,971.18
2022-09-28T15:53:53.820Z,971.23
2022-09-28T15:54:53.668Z,971.29
2022-09-28T15:55:53.715Z,971.38
2022-09-28T15:56:53.670Z,971.41
2022-09-28T15:57:53.624Z,971.45
2022-09-28T15:58:53.712Z,971.50
2022-09-28T15:59:53.778Z,971.46
2022-09-28T16:00:53.686Z,971.49
2022-09-28T16:01:53.753Z,971.40
2022-09-28T16:02:53.720Z,971.30
2022-09-28T16:03:53.605Z,971.18
2022-09-28T16:04:53.559Z,971.19
2022-09-28T16:05:53.593Z,971.35
2022-09-28T16:06:53.609Z,971.45
2022-09-28T16:07:56.099Z,971.46
2022-09-28T16:08:54.625Z,971.48
2022-09-28T16:09:53.639Z,971.36
2022-09-28T16:10:54.037Z,971.31
2022-09-28T16:11:53.536Z,971.30
2022-09-28T16:12:53.479Z,971.25
2022-09-28T16:13:53.544Z,971.25
2022-09-28T16:14:53.541Z,971.40
2022-09-28T16:15:53.583Z,971.45
2022-09-28T16:16:53.668Z,971.48
2022-09-28T16:17:53.487Z,971.57
2022-09-28T16:18:53.472Z,971.53
2022-09-28T16:19:53.509Z,971.40
2022-09-28T16:20:53.423Z,971.36
2022-09-28T16:21:53.474Z,971.30
2022-09-28T16:22:53.484Z,971.44
2022-09-28T16:23:53.387Z,971.53
2022-09-28T16:24:53.350Z,971.56
2022-09-28T16:25:53.381Z,971.69
2022-09-28T16:26:53.326Z,971.67
2022-09-28T16:27:53.305Z,971.77
2022-09-28T16:28:53.318Z,971.76
2022-09-28T16:29:53.297Z,971.71
2022-09-28T16:30:53.312Z,971.76
2022-09-28T16:31:53.282Z,971.79
2022-09-28T16:32:53.226Z,971.82
2022-09-28T16:33:53.215Z,971.86
2022-09-28T16:34:53.209Z,971.86
2022-09-28T16:35:53.271Z,971.89
2022-09-28T16:36:53.189Z,971.96
2022-09-28T16:37:53.282Z,971.94
2022-09-28T16:38:53.168Z,972.02
2022-09-28T16:39:53.225Z,971.98
2022-09-28T16:40:53.215Z,971.98
2022-09-28T16:41:53.262Z,972.02
2022-09-28T16:42:53.184Z,972.05
2022-09-28T16:43:53.241Z,972.02
2022-09-28T16:44:53.177Z,972.07
2022-09-28T16:45:53.189Z,972.11
2022-09-28T16:46:53.135Z,972.17
2022-09-28T16:47:53.195Z,972.12
2022-09-28T16:48:53.058Z,972.16
2022-09-28T16:49:53.063Z,972.11
2022-09-28T16:50:53.378Z,972.13
2022-09-28T16:51:53.107Z,972.20
2022-09-28T16:52:56.786Z,972.17
2022-09-28T16:53:54.048Z,972.18
2022-09-28T16:54:53.107Z,972.20
2022-09-28T16:55:53.073Z,972.25
2022-09-28T16:56:53.091Z,972.26
2022-09-28T16:57:52.987Z,972.23
2022-09-28T16:58:52.955Z,972.29
2022-09-28T16:59:52.977Z,972.23
2022-09-28T17:00:52.955Z,972.25
2022-09-28T17:01:53.072Z,972.20
2022-09-28T17:02:53.029Z,972.22
2022-09-28T17:03:52.922Z,972.26
2022-09-28T17:04:52.920Z,972.25
2022-09-28T17:05:52.925Z,972.29
2022-09-28T17:06:52.994Z,972.30
2022-09-28T17:07:52.839Z,972.35
2022-09-28T17:08:52.853Z,972.27
2022-09-28T17:09:52.864Z,972.30
2022-09-28T17:11:22.594Z,972.33
2022-09-28T17:11:54.821Z,972.33
2022-09-28T17:12:52.795Z,972.41
2022-09-28T17:13:52.906Z,972.39
2022-09-28T17:14:52.800Z,972.39
2022-09-28T17:15:52.856Z,972.39
2022-09-28T17:17:08.175Z,972.41
2022-09-28T17:17:54.803Z,972.43
2022-09-28T17:18:52.729Z,972.42
2022-09-28T17:19:52.736Z,972.47
2022-09-28T17:20:52.740Z,972.49
2022-09-28T17:21:52.682Z,972.48
2022-09-28T17:22:52.742Z,972.48
2022-09-28T17:23:52.718Z,972.56
2022-09-28T17:24:52.689Z,972.61
2022-09-28T17:25:52.723Z,972.58
2022-09-28T17:26:52.710Z,972.62
2022-09-28T17:27:52.647Z,972.66
2022-09-28T17:28:52.597Z,972.62
2022-09-28T17:29:52.593Z,972.61
2022-09-28T17:30:52.783Z,972.61
2022-09-28T17:31:52.599Z,972.69
2022-09-28T17:32:52.568Z,972.63
2022-09-28T17:33:52.578Z,972.71
2022-09-28T17:35:06.441Z,972.72
2022-09-28T17:35:54.668Z,972.69
2022-09-28T17:36:52.539Z,972.75
2022-09-28T17:37:52.497Z,972.79
2022-09-28T17:38:52.518Z,972.68
2022-09-28T17:39:52.494Z,972.77
2022-09-28T17:40:52.645Z,972.79
2022-09-28T17:41:52.489Z,972.85
2022-09-28T17:42:52.478Z,972.86
2022-09-28T17:43:52.440Z,972.86
2022-09-28T17:44:52.549Z,972.91
2022-09-28T17:45:52.611Z,972.89
2022-09-28T17:46:52.435Z,972.94
2022-09-28T17:47:52.432Z,972.90
2022-09-28T17:48:52.389Z,972.89
2022-09-28T17:49:52.419Z,972.93
2022-09-28T17:50:52.429Z,972.95
2022-09-28T17:51:52.395Z,972.99
2022-09-28T17:52:52.364Z,973.08
2022-09-28T17:53:52.383Z,973.02
2022-09-28T17:54:52.388Z,973.05
2022-09-28T17:55:52.354Z,973.08
2022-09-28T17:56:52.317Z,973.00
2022-09-28T17:57:52.296Z,973.04
2022-09-28T17:58:52.308Z,973.07
2022-09-28T17:59:52.304Z,973.07
2022-09-28T18:00:52.345Z,973.11
2022-09-28T18:01:52.427Z,973.01
2022-09-28T18:02:52.339Z,973.12
2022-09-28T18:03:52.265Z,973.06
2022-09-28T18:04:52.710Z,973.12
2022-09-28T18:05:52.285Z,973.08
2022-09-28T18:06:52.227Z,973.12
2022-09-28T18:07:52.250Z,973.11
2022-09-28T18:08:52.185Z,973.09
2022-09-28T18:09:52.202Z,973.17
2022-09-28T18:10:52.205Z,973.23
2022-09-28T18:11:52.184Z,973.20
2022-09-28T18:12:53.157Z,973.23
2022-09-28T18:13:52.154Z,973.20
2022-09-28T18:14:52.126Z,973.19
2022-09-28T18:15:52.223Z,973.28
2022-09-28T18:16:52.138Z,973.27
2022-09-28T18:17:52.095Z,973.24
2022-09-28T18:18:51.995Z,973.25
2022-09-28T18:19:52.103Z,973.29
2022-09-28T18:20:52.121Z,973.27
2022-09-28T18:21:52.078Z,973.29
2022-09-28T18:22:52.047Z,973.23
2022-09-28T18:23:52.027Z,973.29
2022-09-28T18:24:52.057Z,973.32
2022-09-28T18:25:52.048Z,973.31
2022-09-28T18:26:52.026Z,973.27
2022-09-28T18:27:52.116Z,973.30
2022-09-28T18:28:51.971Z,973.25
2022-09-28T18:29:52.039Z,973.34
2022-09-28T18:30:52.070Z,973.32
2022-09-28T18:31:52.029Z,973.31
2022-09-28T18:32:51.946Z,973.33